createdAt,value
2023-04-17T00:01:15.939Z,102617.47
2023-04-17T00:03:47.332Z,102616.59
2023-04-17T00:06:16.405Z,102617.56
2023-04-17T00:08:44.639Z,102617.63
2023-04-17T00:11:12.506Z,102609.69
2023-04-17T00:13:40.420Z,102613.31
2023-04-17T00:16:10.685Z,102614.31
2023-04-17T00:18:38.588Z,102618.84
2023-04-17T00:21:07.898Z,102616.16
2023-04-17T00:23:35.760Z,102618.84
2023-04-17T00:26:03.625Z,102621.53
2023-04-17T00:28:31.488Z,102617.03
2023-04-17T00:30:59.660Z,102621.47
2023-04-17T00:33:27.548Z,102622.28
2023-04-17T00:35:55.508Z,102622.28
2023-04-17T00:38:24.732Z,102625.88
2023-04-17T00:40:52.718Z,102624.06
2023-04-17T00:43:20.666Z,102622.28
2023-04-17T00:45:48.641Z,102616.00
2023-04-17T00:48:16.750Z,102625.72
2023-04-17T00:50:44.838Z,102619.53
2023-04-17T00:53:12.819Z,102629.34
2023-04-17T00:55:42.158Z,102625.06
2023-04-17T00:58:10.122Z,102626.72
2023-04-17T01:00:37.972Z,102626.75
2023-04-17T01:03:06.142Z,102618.72
2023-04-17T01:05:35.609Z,102622.34
2023-04-17T01:08:03.527Z,102631.31
2023-04-17T01:10:31.837Z,102626.91
2023-04-17T01:13:04.303Z,102634.94
2023-04-17T01:15:32.151Z,102626.03
2023-04-17T01:18:00.209Z,102635.03
2023-04-17T01:20:31.113Z,102635.97
2023-04-17T01:22:59.275Z,102626.19
2023-04-17T01:25:28.834Z,102623.66
2023-04-17T01:27:56.890Z,102632.53
2023-04-17T01:30:24.855Z,102629.91
2023-04-17T01:32:54.962Z,102626.41
2023-04-17T01:35:23.091Z,102625.47
2023-04-17T01:37:51.193Z,102624.53
2023-04-17T01:40:19.319Z,102623.59
2023-04-17T01:42:48.585Z,102618.38
2023-04-17T01:45:16.557Z,102627.31
2023-04-17T01:47:44.499Z,102630.00
2023-04-17T01:50:13.684Z,102620.19
2023-04-17T01:52:41.576Z,102625.63
2023-04-17T01:55:10.150Z,102622.06
2023-04-17T01:57:38.101Z,102614.06
2023-04-17T02:00:09.299Z,102616.84
2023-04-17T02:02:37.378Z,102615.19
2023-04-17T02:05:05.905Z,102609.09
2023-04-17T02:07:33.797Z,102606.66
2023-04-17T02:10:01.708Z,102607.69
2023-04-17T02:12:29.654Z,102607.78
2023-04-17T02:15:01.191Z,102613.28
2023-04-17T02:17:30.566Z,102611.72
2023-04-17T02:19:58.424Z,102596.88
2023-04-17T02:22:26.338Z,102601.47
2023-04-17T02:24:54.231Z,102602.53
2023-04-17T02:27:22.182Z,102599.19
2023-04-17T02:29:50.086Z,102593.97
2023-04-17T02:32:18.168Z,102606.69
2023-04-17T02:34:47.475Z,102601.47
2023-04-17T02:37:15.521Z,102598.97
2023-04-17T02:39:43.436Z,102599.00
2023-04-17T02:42:12.969Z,102599.06
2023-04-17T02:44:40.977Z,102596.34
2023-04-17T02:47:08.868Z,102597.22
2023-04-17T02:49:36.725Z,102602.56
2023-04-17T02:52:06.809Z,102597.16
2023-04-17T02:54:34.760Z,102600.66
2023-04-17T02:57:03.137Z,102600.56
2023-04-17T02:59:31.072Z,102596.91
2023-04-17T03:01:59.882Z,102595.88
2023-04-17T03:04:28.708Z,102602.06
2023-04-17T03:06:56.658Z,102602.00
2023-04-17T03:09:26.157Z,102594.81
2023-04-17T03:11:54.030Z,102600.13
2023-04-17T03:14:21.892Z,102605.41
2023-04-17T03:16:49.805Z,102593.81
2023-04-17T03:19:17.710Z,102592.97
2023-04-17T03:21:45.681Z,102595.66
2023-04-17T03:24:13.570Z,102595.66
2023-04-17T03:26:42.879Z,102592.97
2023-04-17T03:29:11.083Z,102600.06
2023-04-17T03:31:39.128Z,102604.50
2023-04-17T03:34:07.048Z,102598.25
2023-04-17T03:36:35.685Z,102600.88
2023-04-17T03:39:03.596Z,102602.72
2023-04-17T03:41:31.522Z,102597.38
2023-04-17T03:44:00.887Z,102595.69
2023-04-17T03:46:28.840Z,102599.28
2023-04-17T03:48:56.747Z,102603.97
2023-04-17T03:51:24.836Z,102598.50
2023-04-17T03:53:52.741Z,102596.72
2023-04-17T03:56:20.629Z,102601.25
2023-04-17T03:58:48.495Z,102602.13
2023-04-17T04:01:17.758Z,102605.72
2023-04-17T04:03:45.868Z,102595.94
2023-04-17T04:06:14.006Z,102606.66
2023-04-17T04:08:41.883Z,102603.09
2023-04-17T04:11:09.801Z,102605.84
2023-04-17T04:13:37.677Z,102604.00
2023-04-17T04:16:05.776Z,102602.22
2023-04-17T04:18:35.109Z,102607.53
2023-04-17T04:21:03.001Z,102617.38
2023-04-17T04:23:31.080Z,102615.59
2023-04-17T04:26:01.721Z,102609.47
2023-04-17T04:28:30.294Z,102617.41
2023-04-17T04:30:58.861Z,102613.00
2023-04-17T04:33:27.703Z,102621.03
2023-04-17T04:36:01.113Z,102620.19
2023-04-17T04:38:32.727Z,102617.59
2023-04-17T04:41:06.210Z,102625.69
2023-04-17T04:43:34.894Z,102613.22
2023-04-17T04:46:02.762Z,102617.81
2023-04-17T04:48:30.741Z,102617.91
2023-04-17T04:50:59.996Z,102618.88
2023-04-17T04:53:27.955Z,102615.47
2023-04-17T04:55:55.939Z,102620.97
2023-04-17T04:58:24.007Z,102615.72
2023-04-17T05:00:51.888Z,102623.81
2023-04-17T05:03:20.012Z,102618.63
2023-04-17T05:05:47.978Z,102616.16
2023-04-17T05:08:17.320Z,102611.84
2023-04-17T05:10:46.103Z,102618.28
2023-04-17T05:13:14.040Z,102633.50
2023-04-17T05:15:42.517Z,102633.59
2023-04-17T05:18:10.544Z,102627.47
2023-04-17T05:20:41.197Z,102628.41
2023-04-17T05:23:09.042Z,102630.97
2023-04-17T05:25:38.342Z,102641.66
2023-04-17T05:28:06.594Z,102646.06
2023-04-17T05:30:34.882Z,102637.19
2023-04-17T05:33:03.121Z,102642.56
2023-04-17T05:35:31.025Z,102647.91
2023-04-17T05:37:58.909Z,102650.56
2023-04-17T05:40:26.864Z,102644.19
2023-04-17T05:42:56.527Z,102652.09
2023-04-17T05:45:25.783Z,102646.59
2023-04-17T05:47:53.794Z,102645.47
2023-04-17T05:50:21.854Z,102643.66
2023-04-17T05:52:49.720Z,102646.22
2023-04-17T05:55:20.133Z,102642.56
2023-04-17T05:57:48.046Z,102646.13
2023-04-17T06:00:18.764Z,102645.09
2023-04-17T06:02:46.997Z,102644.09
2023-04-17T06:05:16.536Z,102645.63
2023-04-17T06:07:44.569Z,102648.03
2023-04-17T06:10:12.901Z,102646.91
2023-04-17T06:12:40.804Z,102652.94
2023-04-17T06:15:10.115Z,102658.22
2023-04-17T06:17:39.475Z,102659.03
2023-04-17T06:20:10.454Z,102651.09
2023-04-17T06:22:38.389Z,102651.91
2023-04-17T06:25:07.542Z,102659.66
2023-04-17T06:27:36.922Z,102663.97
2023-04-17T06:30:06.175Z,102666.63
2023-04-17T06:32:36.799Z,102669.25
2023-04-17T06:35:06.780Z,102674.56
2023-04-17T06:37:34.672Z,102680.78
2023-04-17T06:40:02.571Z,102678.09
2023-04-17T06:42:30.477Z,102678.09
2023-04-17T06:44:58.334Z,102684.16
2023-04-17T06:47:26.228Z,102684.97
2023-04-17T06:49:54.084Z,102679.63
2023-04-17T06:52:23.355Z,102692.84
2023-04-17T06:54:51.346Z,102681.31
2023-04-17T06:57:19.286Z,102696.22
2023-04-17T06:59:47.201Z,102689.84
2023-04-17T07:02:15.236Z,102693.22
2023-04-17T07:04:43.455Z,102691.28
2023-04-17T07:07:11.896Z,102690.94
2023-04-17T07:09:43.023Z,102695.16
2023-04-17T07:12:10.973Z,102698.50
2023-04-17T07:14:40.623Z,102703.63
2023-04-17T07:17:08.545Z,102705.09
2023-04-17T07:19:36.532Z,102708.44
2023-04-17T07:22:05.514Z,102710.88
2023-04-17T07:24:35.097Z,102715.19
2023-04-17T07:27:04.622Z,102712.34
2023-04-17T07:29:33.499Z,102713.09
2023-04-17T07:32:01.694Z,102713.88
2023-04-17T07:34:31.352Z,102722.59
2023-04-17T07:36:59.298Z,102716.09
2023-04-17T07:39:31.590Z,102716.84
2023-04-17T07:41:59.502Z,102721.19
2023-04-17T07:44:28.939Z,102725.63
2023-04-17T07:46:56.968Z,102725.56
2023-04-17T07:49:25.088Z,102724.63
2023-04-17T07:51:53.025Z,102725.50
2023-04-17T07:54:21.115Z,102700.09
2023-04-17T07:56:49.430Z,102723.72
2023-04-17T07:59:17.407Z,102726.41
2023-04-17T08:01:46.682Z,102730.69
2023-04-17T08:04:14.861Z,102729.59
2023-04-17T08:06:43.326Z,102720.56
2023-04-17T08:09:11.585Z,102729.91
2023-04-17T08:11:53.439Z,102723.28
2023-04-17T08:14:25.054Z,102720.09
2023-04-17T08:16:54.549Z,102720.69
2023-04-17T08:19:22.602Z,102730.94
2023-04-17T08:21:50.831Z,102711.81
2023-04-17T08:24:19.881Z,102724.88
2023-04-17T08:26:48.481Z,102723.56
2023-04-17T08:29:16.590Z,102724.16
2023-04-17T08:31:44.561Z,102713.97
2023-04-17T08:34:15.244Z,102714.50
2023-04-17T08:36:43.619Z,102716.94
2023-04-17T08:39:12.412Z,102717.38
2023-04-17T08:41:43.849Z,102716.09
2023-04-17T08:44:11.876Z,102716.28
2023-04-17T08:46:40.724Z,102721.19
2023-04-17T08:49:08.867Z,102718.19
2023-04-17T08:51:38.214Z,102711.16
2023-04-17T08:54:06.349Z,102723.09
2023-04-17T08:56:34.259Z,102724.50
2023-04-17T08:59:02.188Z,102722.41
2023-04-17T09:01:30.235Z,102726.66
2023-04-17T09:03:58.331Z,102730.94
2023-04-17T09:06:27.529Z,102726.22
2023-04-17T09:08:58.100Z,102726.72
2023-04-17T09:11:26.099Z,102730.91
2023-04-17T09:13:54.027Z,102734.09
2023-04-17T09:16:22.005Z,102726.66
2023-04-17T09:18:50.460Z,102727.31
2023-04-17T09:21:19.701Z,102728.97
2023-04-17T09:23:49.387Z,102727.03
2023-04-17T09:26:21.102Z,102740.16
2023-04-17T09:29:09.351Z,102729.00
2023-04-17T09:31:38.024Z,102733.31
2023-04-17T09:34:07.566Z,102732.94
2023-04-17T09:36:36.857Z,102733.59
2023-04-17T09:39:05.535Z,102738.69
2023-04-17T09:41:36.422Z,102741.22
2023-04-17T09:44:06.511Z,102740.19
2023-04-17T09:46:35.489Z,102739.25
2023-04-17T09:49:04.253Z,102738.22
2023-04-17T09:51:32.325Z,102740.13
2023-04-17T09:54:00.220Z,102741.22
2023-04-17T09:56:29.648Z,102737.44
2023-04-17T09:58:59.123Z,102734.97
2023-04-17T10:01:27.702Z,102740.50
2023-04-17T10:03:56.019Z,102732.06
2023-04-17T10:06:24.143Z,102732.94
2023-04-17T10:08:52.056Z,102729.81
2023-04-17T10:11:19.950Z,102737.94
2023-04-17T10:13:48.325Z,102731.03
2023-04-17T10:16:17.799Z,102733.88
2023-04-17T10:18:45.933Z,102720.91
2023-04-17T10:21:21.866Z,102736.28
2023-04-17T10:23:49.861Z,102734.72
2023-04-17T10:26:41.655Z,102740.13
2023-04-17T10:29:09.667Z,102741.22
2023-04-17T10:32:28.433Z,102747.31
2023-04-17T10:34:58.305Z,102742.75
2023-04-17T10:38:07.738Z,102735.06
2023-04-17T10:40:36.386Z,102734.38
2023-04-17T10:43:07.008Z,102739.09
2023-04-17T10:45:57.499Z,102741.81
2023-04-17T10:48:29.296Z,102741.50
2023-04-17T10:50:58.828Z,102737.00
2023-04-17T10:53:43.344Z,102729.00
2023-04-17T10:56:11.651Z,102734.97
2023-04-17T10:58:40.594Z,102737.91
2023-04-17T11:01:12.287Z,102737.75
2023-04-17T11:03:40.301Z,102734.88
2023-04-17T11:06:10.260Z,102735.72
2023-04-17T11:08:38.151Z,102733.16
2023-04-17T11:11:06.265Z,102730.69
2023-04-17T11:13:35.246Z,102736.97
2023-04-17T11:16:04.925Z,102735.41
2023-04-17T11:18:33.087Z,102735.59
2023-04-17T11:21:02.176Z,102728.63
2023-04-17T11:23:34.596Z,102735.78
2023-04-17T11:26:02.583Z,102733.59
2023-04-17T11:28:30.609Z,102733.31
2023-04-17T11:30:58.529Z,102729.00
2023-04-17T11:33:26.675Z,102736.19
2023-04-17T11:35:55.380Z,102731.72
2023-04-17T11:38:23.801Z,102733.03
2023-04-17T11:40:53.972Z,102725.34
2023-04-17T11:43:22.564Z,102731.31
2023-04-17T11:45:51.871Z,102730.59
2023-04-17T11:48:22.652Z,102735.63
2023-04-17T11:50:50.546Z,102735.97
2023-04-17T11:53:18.589Z,102729.22
2023-04-17T11:55:51.031Z,102725.94
2023-04-17T11:58:20.634Z,102727.25
2023-04-17T12:00:48.608Z,102723.06
2023-04-17T12:03:33.864Z,102725.03
2023-04-17T12:06:02.320Z,102725.19
2023-04-17T12:08:31.124Z,102723.50
2023-04-17T12:10:59.222Z,102713.03
2023-04-17T12:13:32.716Z,102726.22
2023-04-17T12:16:00.852Z,102726.34
2023-04-17T12:18:28.962Z,102725.88
2023-04-17T12:20:57.045Z,102719.75
2023-04-17T12:23:25.374Z,102722.81
2023-04-17T12:25:53.263Z,102727.56
2023-04-17T12:28:22.135Z,102724.34
2023-04-17T12:30:51.627Z,102717.47
2023-04-17T12:33:19.561Z,102719.47
2023-04-17T12:35:47.451Z,102714.88
2023-04-17T12:38:15.562Z,102688.06
2023-04-17T12:40:45.462Z,102711.63
2023-04-17T12:43:13.955Z,102713.63
2023-04-17T12:45:45.787Z,102708.56
2023-04-17T12:48:15.646Z,102709.13
2023-04-17T12:50:43.981Z,102706.28
2023-04-17T12:53:12.766Z,102707.50
2023-04-17T12:55:41.170Z,102690.97
2023-04-17T12:58:10.359Z,102702.50
2023-04-17T13:00:38.445Z,102697.19
2023-04-17T13:03:06.826Z,102693.25
2023-04-17T13:05:36.653Z,102697.38
2023-04-17T13:08:04.771Z,102700.13
2023-04-17T13:10:34.269Z,102696.41
2023-04-17T13:13:04.703Z,102688.03
2023-04-17T13:15:33.181Z,102697.88
2023-04-17T13:18:02.205Z,102700.44
2023-04-17T13:20:30.291Z,102696.28
2023-04-17T13:22:59.997Z,102691.56
2023-04-17T13:25:27.956Z,102693.25
2023-04-17T13:27:56.216Z,102697.25
2023-04-17T13:30:24.954Z,102697.94
2023-04-17T13:32:52.940Z,102697.38
2023-04-17T13:35:20.906Z,102687.03
2023-04-17T13:37:49.011Z,102689.94
2023-04-17T13:40:18.544Z,102683.28
2023-04-17T13:42:46.695Z,102688.59
2023-04-17T13:45:16.104Z,102690.34
2023-04-17T13:47:44.638Z,102690.47
2023-04-17T13:50:12.627Z,102685.56
2023-04-17T13:52:40.825Z,102684.97
2023-04-17T13:55:13.102Z,102686.09
2023-04-17T13:57:42.480Z,102679.19
2023-04-17T14:00:11.944Z,102679.97
2023-04-17T14:02:40.159Z,102681.91
2023-04-17T14:05:09.170Z,102689.06
2023-04-17T14:07:37.623Z,102674.50
2023-04-17T14:10:06.464Z,102673.72
2023-04-17T14:12:34.616Z,102680.84
2023-04-17T14:15:03.972Z,102676.06
2023-04-17T14:17:32.645Z,102675.69
2023-04-17T14:20:00.621Z,102673.66
2023-04-17T14:22:28.446Z,102669.63
2023-04-17T14:24:56.601Z,102669.28
2023-04-17T14:27:24.547Z,102675.47
2023-04-17T14:29:52.393Z,102675.47
2023-04-17T14:32:21.805Z,102678.25
2023-04-17T14:34:49.895Z,102674.59
2023-04-17T14:37:17.997Z,102673.00
2023-04-17T14:39:45.966Z,102674.75
2023-04-17T14:42:13.854Z,102669.44
2023-04-17T14:44:43.713Z,102673.38
2023-04-17T14:47:13.159Z,102675.78
2023-04-17T14:49:42.468Z,102677.94
2023-04-17T14:52:10.373Z,102672.84
2023-04-17T14:54:38.342Z,102678.31
2023-04-17T14:57:06.352Z,102675.09
2023-04-17T14:59:34.484Z,102675.41
2023-04-17T15:02:02.497Z,102676.50
2023-04-17T15:04:30.935Z,102676.59
2023-04-17T15:07:00.441Z,102676.84
2023-04-17T15:09:29.644Z,102681.31
2023-04-17T15:11:57.899Z,102676.91
2023-04-17T15:14:26.539Z,102668.16
2023-04-17T15:16:54.572Z,102684.22
2023-04-17T15:19:22.668Z,102678.06
2023-04-17T15:21:50.752Z,102681.56
2023-04-17T15:24:20.001Z,102683.22
2023-04-17T15:26:49.025Z,102680.41
2023-04-17T15:29:17.003Z,102680.09
2023-04-17T15:31:44.882Z,102688.03
2023-04-17T15:34:13.615Z,102671.75
2023-04-17T15:36:42.154Z,102677.78
2023-04-17T15:39:10.222Z,102673.09
2023-04-17T15:41:40.627Z,102676.16
2023-04-17T15:44:08.885Z,102683.16
2023-04-17T15:46:37.129Z,102676.22
2023-04-17T15:49:08.850Z,102674.31
2023-04-17T15:51:49.548Z,102664.91
2023-04-17T15:54:18.432Z,102675.13
2023-04-17T15:56:47.916Z,102676.88
2023-04-17T15:59:16.099Z,102664.22
2023-04-17T16:01:44.911Z,102674.25
2023-04-17T16:04:13.045Z,102674.50
2023-04-17T16:06:41.284Z,102674.84
2023-04-17T16:09:10.008Z,102672.56
2023-04-17T16:11:38.015Z,102674.66
2023-04-17T16:14:07.655Z,102673.31
2023-04-17T16:16:35.694Z,102680.63
2023-04-17T16:19:03.698Z,102679.81
2023-04-17T16:21:32.012Z,102684.75
2023-04-17T16:23:59.906Z,102688.81
2023-04-17T16:26:27.998Z,102681.31
2023-04-17T16:28:55.884Z,102685.31
2023-04-17T16:31:26.177Z,102681.34
2023-04-17T16:33:54.102Z,102683.56
2023-04-17T16:36:21.990Z,102685.47
2023-04-17T16:38:49.894Z,102679.53
2023-04-17T16:41:18.736Z,102685.84
2023-04-17T16:43:46.994Z,102673.47
2023-04-17T16:46:23.829Z,102679.81
2023-04-17T16:48:57.705Z,102666.66
2023-04-17T16:51:26.252Z,102674.38
2023-04-17T16:53:54.162Z,102676.72
2023-04-17T16:56:22.239Z,102678.31
2023-04-17T16:58:50.609Z,102685.25
2023-04-17T17:01:26.887Z,102692.13
2023-04-17T17:03:54.826Z,102648.31
2023-04-17T17:06:23.050Z,102693.66
2023-04-17T17:08:52.088Z,102693.81
2023-04-17T17:11:21.788Z,102683.47
2023-04-17T17:13:50.246Z,102691.34
2023-04-17T17:16:18.848Z,102694.19
2023-04-17T17:18:48.974Z,102683.84
2023-04-17T17:21:17.538Z,102698.97
2023-04-17T17:23:45.436Z,102679.66
2023-04-17T17:26:13.386Z,102699.09
2023-04-17T17:28:41.346Z,102693.06
2023-04-17T17:31:09.387Z,102694.97
2023-04-17T17:33:37.279Z,102680.03
2023-04-17T17:36:08.944Z,102688.63
2023-04-17T17:38:36.894Z,102694.66
2023-04-17T17:41:05.203Z,102693.41
2023-04-17T17:43:35.211Z,102693.94
2023-04-17T17:46:03.164Z,102691.19
2023-04-17T17:48:31.083Z,102685.00
2023-04-17T17:50:59.031Z,102685.25
2023-04-17T17:53:28.548Z,102676.66
2023-04-17T17:55:56.815Z,102679.81
2023-04-17T17:58:24.896Z,102680.00
2023-04-17T18:00:53.113Z,102682.34
2023-04-17T18:03:21.345Z,102685.19
2023-04-17T18:05:49.391Z,102690.00
2023-04-17T18:08:17.790Z,102680.69
2023-04-17T18:10:47.196Z,102683.41
2023-04-17T18:13:16.112Z,102682.09
2023-04-17T18:15:44.069Z,102690.22
2023-04-17T18:18:12.044Z,102659.03
2023-04-17T18:20:40.492Z,102676.63
2023-04-17T18:23:08.571Z,102694.41
2023-04-17T18:25:36.622Z,102696.34
2023-04-17T18:28:06.358Z,102693.88
2023-04-17T18:30:34.371Z,102702.94
2023-04-17T18:33:02.457Z,102696.06
2023-04-17T18:35:30.385Z,102709.91
2023-04-17T18:37:58.274Z,102697.81
2023-04-17T18:40:26.160Z,102697.44
2023-04-17T18:42:54.055Z,102688.97
2023-04-17T18:45:24.406Z,102679.69
2023-04-17T18:47:52.912Z,102685.59
2023-04-17T18:50:20.943Z,102691.59
2023-04-17T18:52:51.048Z,102675.53
2023-04-17T18:55:19.496Z,102689.09
2023-04-17T18:57:47.426Z,102693.13
2023-04-17T19:00:15.726Z,102695.31
2023-04-17T19:02:45.217Z,102695.78
2023-04-17T19:05:13.247Z,102698.88
2023-04-17T19:07:41.545Z,102696.00
2023-04-17T19:10:10.304Z,102705.91
2023-04-17T19:12:38.243Z,102711.75
2023-04-17T19:15:07.214Z,102712.84
2023-04-17T19:17:35.125Z,102699.03
2023-04-17T19:20:04.552Z,102717.56
2023-04-17T19:22:32.471Z,102714.09
2023-04-17T19:25:00.417Z,102715.25
2023-04-17T19:27:28.704Z,102720.94
2023-04-17T19:29:56.590Z,102727.22
2023-04-17T19:32:24.510Z,102726.56
2023-04-17T19:34:52.504Z,102725.84
2023-04-17T19:37:21.779Z,102734.13
2023-04-17T19:39:49.708Z,102729.00
2023-04-17T19:42:17.586Z,102732.84
2023-04-17T19:44:46.162Z,102744.69
2023-04-17T19:47:14.008Z,102742.19
2023-04-17T19:49:41.859Z,102745.88
2023-04-17T19:52:09.787Z,102742.44
2023-04-17T19:54:39.387Z,102742.53
2023-04-17T19:57:07.274Z,102749.78
2023-04-17T19:59:35.167Z,102745.38
2023-04-17T20:02:03.102Z,102742.84
2023-04-17T20:04:31.205Z,102741.13
2023-04-17T20:06:59.477Z,102733.47
2023-04-17T20:09:27.488Z,102740.63
2023-04-17T20:11:56.777Z,102746.91
2023-04-17T20:14:25.774Z,102740.03
2023-04-17T20:16:53.766Z,102748.28
2023-04-17T20:19:21.672Z,102759.22
2023-04-17T20:21:49.559Z,102758.53
2023-04-17T20:24:17.434Z,102764.06
2023-04-17T20:26:45.631Z,102751.78
2023-04-17T20:29:15.078Z,102766.13
2023-04-17T20:31:43.284Z,102764.44
2023-04-17T20:34:11.445Z,102765.31
2023-04-17T20:36:39.421Z,102767.97
2023-04-17T20:39:07.339Z,102761.03
2023-04-17T20:41:36.463Z,102775.25
2023-04-17T20:44:05.700Z,102768.13
2023-04-17T20:46:35.119Z,102763.59
2023-04-17T20:49:03.369Z,102764.41
2023-04-17T20:51:31.906Z,102764.38
2023-04-17T20:53:59.815Z,102762.41
2023-04-17T20:56:27.720Z,102763.19
2023-04-17T20:58:55.636Z,102760.41
2023-04-17T21:01:23.595Z,102761.16
2023-04-17T21:03:53.094Z,102770.84
2023-04-17T21:06:22.986Z,102761.00
2023-04-17T21:08:51.064Z,102764.44
2023-04-17T21:11:18.949Z,102759.88
2023-04-17T21:13:46.864Z,102759.72
2023-04-17T21:16:14.831Z,102760.53
2023-04-17T21:18:42.756Z,102757.78
2023-04-17T21:21:11.998Z,102755.09
2023-04-17T21:23:39.928Z,102747.81
2023-04-17T21:26:07.834Z,102744.22
2023-04-17T21:28:37.409Z,102750.16
2023-04-17T21:31:08.488Z,102744.69
2023-04-17T21:33:36.576Z,102734.88
2023-04-17T21:36:04.689Z,102746.25
2023-04-17T21:38:33.953Z,102743.50
2023-04-17T21:41:01.922Z,102740.75
2023-04-17T21:43:29.783Z,102745.13
2023-04-17T21:45:57.788Z,102742.50
2023-04-17T21:48:25.774Z,102746.25
2023-04-17T21:50:56.143Z,102749.09
2023-04-17T21:53:24.172Z,102742.91
2023-04-17T21:55:53.450Z,102743.81
2023-04-17T21:58:21.321Z,102739.53
2023-04-17T22:00:49.262Z,102742.22
2023-04-17T22:03:17.835Z,102737.00
2023-04-17T22:05:46.359Z,102742.44
2023-04-17T22:08:14.247Z,102745.25
2023-04-17T22:10:42.162Z,102733.78
2023-04-17T22:13:11.568Z,102735.69
2023-04-17T22:15:39.482Z,102736.88
2023-04-17T22:18:07.336Z,102744.25
2023-04-17T22:20:35.226Z,102746.28
2023-04-17T22:23:03.111Z,102747.41
2023-04-17T22:25:31.050Z,102750.34
2023-04-17T22:27:58.940Z,102752.25
2023-04-17T22:30:28.251Z,102757.84
2023-04-17T22:32:57.222Z,102760.75
2023-04-17T22:35:25.290Z,102759.16
2023-04-17T22:37:53.217Z,102761.09
2023-04-17T22:40:21.234Z,102755.94
2023-04-17T22:42:50.289Z,102762.34
2023-04-17T22:45:18.281Z,102767.91
2023-04-17T22:47:47.581Z,102767.19
2023-04-17T22:50:15.508Z,102773.59
2023-04-17T22:52:43.399Z,102778.13
2023-04-17T22:55:11.303Z,102777.34
2023-04-17T22:57:39.552Z,102770.38
2023-04-17T23:00:09.734Z,102769.72
2023-04-17T23:02:37.815Z,102770.63
2023-04-17T23:05:08.645Z,102776.22
2023-04-17T23:07:36.586Z,102772.72
2023-04-17T23:10:04.759Z,102773.72
2023-04-17T23:12:32.758Z,102772.97
2023-04-17T23:15:00.669Z,102767.72
2023-04-17T23:17:28.537Z,102768.69
2023-04-17T23:19:56.594Z,102768.75
2023-04-17T23:22:25.930Z,102774.16
2023-04-17T23:24:53.868Z,102775.97
2023-04-17T23:27:22.055Z,102768.88
2023-04-17T23:29:49.924Z,102771.53
2023-04-17T23:32:17.914Z,102756.47
2023-04-17T23:34:45.878Z,102762.81
2023-04-17T23:37:13.739Z,102764.63
2023-04-17T23:39:42.993Z,102764.63
2023-04-17T23:42:10.854Z,102769.97
2023-04-17T23:44:38.715Z,102757.47
2023-04-17T23:47:06.641Z,102772.50
2023-04-17T23:49:34.609Z,102772.38
2023-04-17T23:52:02.521Z,102771.34
2023-04-17T23:54:30.414Z,102763.16
2023-04-17T23:56:59.680Z,102769.28
2023-04-17T23:59:27.518Z,102771.03
